createdAt,value
2023-01-21T00:01:05.061Z,78.00
2023-01-21T00:03:31.974Z,80.40
2023-01-21T00:05:58.909Z,73.60
2023-01-21T00:08:26.629Z,78.00
2023-01-21T00:10:53.961Z,79.50
2023-01-21T00:13:20.990Z,81.50
2023-01-21T00:15:47.898Z,76.10
2023-01-21T00:18:14.696Z,74.80
2023-01-21T00:20:41.647Z,77.10
2023-01-21T00:23:10.798Z,68.00
2023-01-21T00:25:37.733Z,69.10
2023-01-21T00:28:04.627Z,71.00
2023-01-21T00:30:31.507Z,68.60
2023-01-21T00:32:58.426Z,54.10
2023-01-21T00:35:25.193Z,61.20
2023-01-21T00:37:52.470Z,62.70
2023-01-21T00:40:19.467Z,58.60
2023-01-21T00:42:46.296Z,54.10
2023-01-21T00:45:13.100Z,59.10
2023-01-21T00:47:40.147Z,64.90
2023-01-21T00:50:08.838Z,64.90
2023-01-21T00:52:36.184Z,56.50
2023-01-21T00:55:03.229Z,60.90
2023-01-21T00:57:30.389Z,63.40
2023-01-21T00:59:57.661Z,57.40
2023-01-21T01:02:24.524Z,65.20
2023-01-21T01:04:51.384Z,60.70
2023-01-21T01:07:18.189Z,60.90
2023-01-21T01:09:44.960Z,63.80
2023-01-21T01:12:11.710Z,57.90
2023-01-21T01:14:38.487Z,64.50
2023-01-21T01:17:05.328Z,58.80
2023-01-21T01:19:32.180Z,61.30
2023-01-21T01:21:58.961Z,66.90
2023-01-21T01:24:25.855Z,57.30
2023-01-21T01:26:52.708Z,55.30
2023-01-21T01:29:19.523Z,54.10
2023-01-21T01:31:46.436Z,63.40
2023-01-21T01:34:13.309Z,56.90
2023-01-21T01:36:40.175Z,62.10
2023-01-21T01:39:07.832Z,63.10
2023-01-21T01:41:35.490Z,56.00
2023-01-21T01:44:06.478Z,64.20
2023-01-21T01:46:35.239Z,60.20
2023-01-21T01:49:09.709Z,56.90
2023-01-21T01:51:58.161Z,63.00
2023-01-21T01:54:28.532Z,66.60
2023-01-21T01:56:56.468Z,60.60
2023-01-21T01:59:23.310Z,57.80
2023-01-21T02:01:50.137Z,50.20
2023-01-21T02:04:20.167Z,53.70
2023-01-21T02:06:47.395Z,56.40
2023-01-21T02:09:14.142Z,51.90
2023-01-21T02:11:40.935Z,60.40
2023-01-21T02:14:07.722Z,44.90
2023-01-21T02:16:47.468Z,55.20
2023-01-21T02:19:39.742Z,53.00
2023-01-21T02:22:21.845Z,54.10
2023-01-21T02:25:26.685Z,55.30
2023-01-21T02:28:08.885Z,55.10
2023-01-21T02:30:57.616Z,52.90
2023-01-21T02:33:45.581Z,56.10
2023-01-21T02:36:27.191Z,63.60
2023-01-21T02:39:10.043Z,50.80
2023-01-21T02:41:58.265Z,51.90
2023-01-21T02:44:27.834Z,56.00
2023-01-21T02:47:24.236Z,47.50
2023-01-21T02:49:57.119Z,56.20
2023-01-21T02:52:24.724Z,65.00
2023-01-21T02:54:59.313Z,57.70
2023-01-21T02:58:00.381Z,60.70
2023-01-21T03:00:30.312Z,52.50
2023-01-21T03:03:21.307Z,50.80
2023-01-21T03:06:13.177Z,46.30
2023-01-21T03:08:49.398Z,51.40
2023-01-21T03:11:17.177Z,49.50
2023-01-21T03:14:08.477Z,46.50
2023-01-21T03:16:58.608Z,46.90
2023-01-21T03:19:31.313Z,53.90
2023-01-21T03:21:58.979Z,53.00
2023-01-21T03:24:25.845Z,46.10
2023-01-21T03:26:52.689Z,52.80
2023-01-21T03:29:22.266Z,48.50
2023-01-21T03:31:51.506Z,48.60
2023-01-21T03:34:18.287Z,55.40
2023-01-21T03:36:49.021Z,50.10
2023-01-21T03:39:21.277Z,57.70
2023-01-21T03:41:48.154Z,54.90
2023-01-21T03:44:14.884Z,55.80
2023-01-21T03:46:46.222Z,51.20
2023-01-21T03:49:19.682Z,46.50
2023-01-21T03:51:54.983Z,50.70
2023-01-21T03:54:22.152Z,52.50
2023-01-21T03:56:48.913Z,46.50
2023-01-21T03:59:15.739Z,46.80
2023-01-21T04:01:42.486Z,50.10
2023-01-21T04:04:09.646Z,44.90
2023-01-21T04:06:37.310Z,49.20
2023-01-21T04:09:05.040Z,39.60
2023-01-21T04:11:31.897Z,43.60
2023-01-21T04:13:58.661Z,46.70
2023-01-21T04:16:25.541Z,49.10
2023-01-21T04:18:52.423Z,45.30
2023-01-21T04:21:19.266Z,44.70
2023-01-21T04:23:45.987Z,40.60
2023-01-21T04:26:12.792Z,50.80
2023-01-21T04:28:39.521Z,43.60
2023-01-21T04:31:06.317Z,43.30
2023-01-21T04:33:33.153Z,44.10
2023-01-21T04:36:00.529Z,47.20
2023-01-21T04:38:27.600Z,45.00
2023-01-21T04:40:54.398Z,44.80
2023-01-21T04:43:21.361Z,39.50
2023-01-21T04:45:48.328Z,37.00
2023-01-21T04:48:15.153Z,47.10
2023-01-21T04:50:41.915Z,50.60
2023-01-21T04:53:08.660Z,44.80
2023-01-21T04:55:35.471Z,46.60
2023-01-21T04:58:02.199Z,39.90
2023-01-21T05:00:29.014Z,39.60
2023-01-21T05:02:55.775Z,41.80
2023-01-21T05:05:22.610Z,44.10
2023-01-21T05:07:53.066Z,37.40
2023-01-21T05:10:19.970Z,44.40
2023-01-21T05:12:46.792Z,42.10
2023-01-21T05:15:13.698Z,44.00
2023-01-21T05:17:40.564Z,39.10
2023-01-21T05:20:07.879Z,42.50
2023-01-21T05:22:34.646Z,43.20
2023-01-21T05:25:01.677Z,40.10
2023-01-21T05:27:28.416Z,42.30
2023-01-21T05:29:57.116Z,41.70
2023-01-21T05:32:24.038Z,39.70
2023-01-21T05:34:50.893Z,38.60
2023-01-21T05:37:17.654Z,50.00
2023-01-21T05:39:44.761Z,41.10
2023-01-21T05:42:12.454Z,48.40
2023-01-21T05:44:39.273Z,36.20
2023-01-21T05:47:07.614Z,38.40
2023-01-21T05:49:35.052Z,34.10
2023-01-21T05:52:01.966Z,34.00
2023-01-21T05:54:28.732Z,34.50
2023-01-21T05:56:55.599Z,45.90
2023-01-21T05:59:22.488Z,54.60
2023-01-21T06:01:49.332Z,39.70
2023-01-21T06:04:16.113Z,49.80
2023-01-21T06:06:42.911Z,38.90
2023-01-21T06:09:09.817Z,36.60
2023-01-21T06:11:36.545Z,42.70
2023-01-21T06:14:03.372Z,46.40
2023-01-21T06:16:30.148Z,46.40
2023-01-21T06:18:56.893Z,41.70
2023-01-21T06:21:23.763Z,48.70
2023-01-21T06:23:50.564Z,33.90
2023-01-21T06:26:17.280Z,31.20
2023-01-21T06:28:44.088Z,32.70
2023-01-21T06:31:11.085Z,43.40
2023-01-21T06:33:37.913Z,39.50
2023-01-21T06:36:05.001Z,36.80
2023-01-21T06:38:36.089Z,41.30
2023-01-21T06:41:03.395Z,36.90
2023-01-21T06:43:30.305Z,43.70
2023-01-21T06:45:57.078Z,38.90
2023-01-21T06:48:23.898Z,34.70
2023-01-21T06:50:50.751Z,44.50
2023-01-21T06:53:17.677Z,37.70
2023-01-21T06:55:44.579Z,42.40
2023-01-21T06:58:11.573Z,33.40
2023-01-21T07:00:38.353Z,42.70
2023-01-21T07:03:05.230Z,40.10
2023-01-21T07:05:32.050Z,48.60
2023-01-21T07:07:59.692Z,44.20
2023-01-21T07:10:26.734Z,36.60
2023-01-21T07:12:53.604Z,60.70
2023-01-21T07:15:20.379Z,39.10
2023-01-21T07:17:47.170Z,36.10
2023-01-21T07:20:14.036Z,42.30
2023-01-21T07:22:40.839Z,44.10
2023-01-21T07:25:08.222Z,30.60
2023-01-21T07:27:35.087Z,37.00
2023-01-21T07:30:01.880Z,46.50
2023-01-21T07:32:28.753Z,47.80
2023-01-21T07:34:55.485Z,45.30
2023-01-21T07:37:22.331Z,41.00
2023-01-21T07:39:49.088Z,44.50
2023-01-21T07:42:15.913Z,39.60
2023-01-21T07:44:42.834Z,48.90
2023-01-21T07:47:10.651Z,60.70
2023-01-21T07:49:37.708Z,52.60
2023-01-21T07:52:04.614Z,60.50
2023-01-21T07:54:31.452Z,47.70
2023-01-21T07:56:58.590Z,48.50
2023-01-21T07:59:25.389Z,49.50
2023-01-21T08:01:52.530Z,45.30
2023-01-21T08:04:19.518Z,81.40
2023-01-21T08:06:46.292Z,80.10
2023-01-21T08:09:13.086Z,62.00
2023-01-21T08:11:39.957Z,58.50
2023-01-21T08:14:06.764Z,40.00
2023-01-21T08:16:33.682Z,36.70
2023-01-21T08:19:00.530Z,48.50
2023-01-21T08:21:27.471Z,40.50
2023-01-21T08:23:54.246Z,39.20
2023-01-21T08:26:20.996Z,44.10
2023-01-21T08:28:47.969Z,45.10
2023-01-21T08:31:14.839Z,48.80
2023-01-21T08:33:42.374Z,41.50
2023-01-21T08:36:09.611Z,43.00
2023-01-21T08:38:36.764Z,50.80
2023-01-21T08:41:04.560Z,49.40
2023-01-21T08:43:31.385Z,52.00
2023-01-21T08:45:59.417Z,60.80
2023-01-21T08:48:26.312Z,47.50
2023-01-21T08:50:53.106Z,50.70
2023-01-21T08:53:20.004Z,54.70
2023-01-21T08:55:46.796Z,58.00
2023-01-21T08:58:13.539Z,54.40
2023-01-21T09:00:41.986Z,51.50
2023-01-21T09:03:08.829Z,55.60
2023-01-21T09:05:35.729Z,46.20
2023-01-21T09:08:02.567Z,51.60
2023-01-21T09:10:48.255Z,61.50
2023-01-21T09:13:16.504Z,60.80
2023-01-21T09:15:43.594Z,63.30
2023-01-21T09:18:10.733Z,51.30
2023-01-21T09:20:38.059Z,49.40
2023-01-21T09:23:24.364Z,48.20
2023-01-21T09:26:01.477Z,39.70
2023-01-21T09:28:28.237Z,38.30
2023-01-21T09:31:02.971Z,36.00
2023-01-21T09:33:30.595Z,46.70
2023-01-21T09:35:58.649Z,44.50
2023-01-21T09:38:26.033Z,39.10
2023-01-21T09:40:53.025Z,52.30
2023-01-21T09:43:34.334Z,65.30
2023-01-21T09:46:04.145Z,44.20
2023-01-21T09:48:34.217Z,48.70
2023-01-21T09:51:03.348Z,39.90
2023-01-21T09:53:38.151Z,52.40
2023-01-21T09:56:05.085Z,41.00
2023-01-21T09:58:38.821Z,48.50
2023-01-21T10:01:09.415Z,45.20
2023-01-21T10:03:56.722Z,49.40
2023-01-21T12:22:24.626Z,43.40
2023-01-21T12:24:54.377Z,43.40
2023-01-21T12:27:36.560Z,47.60
2023-01-21T12:30:22.412Z,47.30
2023-01-21T12:32:51.516Z,47.40
2023-01-21T12:35:29.635Z,46.00
2023-01-21T12:38:00.719Z,56.50
2023-01-21T12:40:31.354Z,38.70
2023-01-21T12:43:06.009Z,40.20
2023-01-21T12:45:46.367Z,44.90
2023-01-21T12:48:42.627Z,41.50
2023-01-21T12:51:11.604Z,45.80
2023-01-21T12:56:24.949Z,41.90
2023-01-21T12:58:58.051Z,46.10
2023-01-21T13:01:55.016Z,40.40
2023-01-21T13:04:31.754Z,44.70
2023-01-21T13:07:06.156Z,51.50
2023-01-21T13:09:46.556Z,53.30
2023-01-21T13:12:24.521Z,53.20
2023-01-21T13:15:02.760Z,54.90
2023-01-21T13:17:32.215Z,57.60
2023-01-21T13:19:59.476Z,52.40
2023-01-21T13:22:42.939Z,57.20
2023-01-21T13:25:37.819Z,58.70
2023-01-21T13:28:30.799Z,50.70
2023-01-21T13:31:19.729Z,64.80
2023-01-21T13:33:52.939Z,55.30
2023-01-21T13:36:58.896Z,54.90
2023-01-21T13:39:50.742Z,51.00
2023-01-21T13:42:20.729Z,41.00
2023-01-21T13:44:52.363Z,48.50
2023-01-21T13:48:07.893Z,54.80
2023-01-21T13:50:53.844Z,48.00
2023-01-21T13:53:58.808Z,50.70
2023-01-21T13:56:33.226Z,39.30
2023-01-21T13:59:02.040Z,42.80
2023-01-21T14:01:35.623Z,37.90
2023-01-21T14:04:10.021Z,41.90
2023-01-21T14:06:46.096Z,53.40
2023-01-21T14:09:25.595Z,45.90
2023-01-21T14:12:02.125Z,44.70
2023-01-21T14:14:45.737Z,43.30
2023-01-21T14:17:31.422Z,46.10
2023-01-21T14:19:58.273Z,39.30
2023-01-21T14:22:28.180Z,42.70
2023-01-21T14:25:19.468Z,54.90
2023-01-21T14:28:48.294Z,51.20
2023-01-21T14:31:21.440Z,41.70
2023-01-21T14:33:58.053Z,39.70
2023-01-21T14:37:16.612Z,44.30
2023-01-21T14:40:06.780Z,60.00
2023-01-21T14:42:49.264Z,42.90
2023-01-21T14:45:20.535Z,47.70
2023-01-21T14:47:52.363Z,50.00
2023-01-21T14:50:43.185Z,45.00
2023-01-21T14:53:28.096Z,50.80
2023-01-21T14:56:28.925Z,52.90
2023-01-21T14:59:04.265Z,39.30
2023-01-21T15:01:42.133Z,48.60
2023-01-21T15:04:25.750Z,47.20
2023-01-21T15:06:55.156Z,45.90
2023-01-21T15:09:26.040Z,47.00
2023-01-21T15:11:57.095Z,56.00
2023-01-21T15:14:45.708Z,47.70
2023-01-21T15:17:44.916Z,39.80
2023-01-21T15:20:43.112Z,49.00
2023-01-21T15:23:29.000Z,45.20
2023-01-21T15:26:11.240Z,41.10
2023-01-21T15:28:53.665Z,41.30
2023-01-21T15:31:20.453Z,48.60
2023-01-21T15:33:58.786Z,55.90
2023-01-21T15:36:31.880Z,49.50
2023-01-21T15:39:02.355Z,54.60
2023-01-21T15:41:39.086Z,42.60
2023-01-21T15:44:34.305Z,48.70
2023-01-21T15:47:27.116Z,43.40
2023-01-21T15:50:13.003Z,42.30
2023-01-21T15:52:49.033Z,43.90
2023-01-21T15:55:44.609Z,45.00
2023-01-21T15:58:35.179Z,42.30
2023-01-21T16:01:10.655Z,35.50
2023-01-21T16:03:47.566Z,45.80
2023-01-21T16:07:02.163Z,44.00
2023-01-21T18:20:04.833Z,45.70
2023-01-21T18:22:31.649Z,50.90
2023-01-21T18:25:00.770Z,52.50
2023-01-21T18:27:27.512Z,53.40
2023-01-21T18:29:54.255Z,49.40
2023-01-21T18:32:21.296Z,52.80
2023-01-21T18:34:49.679Z,56.50
2023-01-21T18:37:17.433Z,53.00
2023-01-21T18:39:44.383Z,47.90
2023-01-21T18:42:15.526Z,51.30
2023-01-21T18:44:42.351Z,43.70
2023-01-21T18:47:11.112Z,56.40
2023-01-21T18:49:38.007Z,56.80
2023-01-21T18:52:04.948Z,54.50
2023-01-21T18:54:32.403Z,65.60
2023-01-21T18:56:59.246Z,65.20
2023-01-21T18:59:26.515Z,62.20
2023-01-21T19:01:53.470Z,51.90
2023-01-21T19:04:20.770Z,56.30
2023-01-21T19:06:49.798Z,56.60
2023-01-21T19:09:22.506Z,55.10
2023-01-21T19:11:49.307Z,57.00
2023-01-21T19:14:15.920Z,53.10
2023-01-21T19:16:43.266Z,56.10
2023-01-21T19:19:15.440Z,51.60
2023-01-21T19:21:42.840Z,51.70
2023-01-21T19:24:11.897Z,42.70
2023-01-21T19:26:39.489Z,49.50
2023-01-21T19:29:07.307Z,53.40
2023-01-21T19:31:34.515Z,40.60
2023-01-21T19:34:01.288Z,46.10
2023-01-21T19:36:29.412Z,48.90
2023-01-21T19:38:57.791Z,47.10
2023-01-21T19:41:24.731Z,47.40
2023-01-21T19:43:51.572Z,42.70
2023-01-21T19:46:18.705Z,53.70
2023-01-21T19:48:49.824Z,49.10
2023-01-21T19:51:16.431Z,51.60
2023-01-21T19:53:44.812Z,44.90
2023-01-21T19:56:14.040Z,47.40
2023-01-21T19:58:41.554Z,48.50
2023-01-21T20:01:09.625Z,56.10
2023-01-21T20:03:36.663Z,52.30
2023-01-21T20:06:03.684Z,47.80
2023-01-21T20:08:31.367Z,52.40
2023-01-21T20:10:58.000Z,54.10
2023-01-21T20:13:25.667Z,46.60
2023-01-21T20:15:52.422Z,54.10
2023-01-21T20:18:26.429Z,50.70
2023-01-21T20:20:53.277Z,49.20
2023-01-21T20:23:21.537Z,47.80
2023-01-21T20:25:49.833Z,52.70
2023-01-21T20:28:17.230Z,54.70
2023-01-21T20:30:44.433Z,55.10
2023-01-21T20:33:12.074Z,59.10
2023-01-21T20:35:39.308Z,59.50
2023-01-21T20:38:06.275Z,55.30
2023-01-21T20:40:35.389Z,54.10
2023-01-21T20:43:02.827Z,61.30
2023-01-21T20:45:32.660Z,58.20
2023-01-21T20:48:02.185Z,63.50
2023-01-21T20:50:33.048Z,57.80
2023-01-21T20:52:59.833Z,50.00
2023-01-21T20:55:27.929Z,54.90
2023-01-21T20:57:55.660Z,58.00
2023-01-21T21:00:23.177Z,57.90
2023-01-21T21:02:49.869Z,50.30
2023-01-21T21:05:17.402Z,47.60
2023-01-21T21:07:44.722Z,49.60
2023-01-21T21:10:24.628Z,50.40
2023-01-21T21:12:51.733Z,48.70
2023-01-21T21:15:19.896Z,52.50
2023-01-21T21:17:47.240Z,54.00
2023-01-21T21:20:19.569Z,51.80
2023-01-21T21:22:47.634Z,47.40
2023-01-21T21:25:18.257Z,53.50
2023-01-21T21:27:45.264Z,46.80
2023-01-21T21:30:13.339Z,50.20
2023-01-21T21:32:41.271Z,46.10
2023-01-21T21:35:23.148Z,50.20
2023-01-21T21:37:50.762Z,46.40
2023-01-21T21:40:18.744Z,51.30
2023-01-21T21:43:04.579Z,49.10
2023-01-21T21:45:31.519Z,53.70
2023-01-21T21:48:17.073Z,54.00
2023-01-21T21:50:44.034Z,53.10
2023-01-21T21:53:10.880Z,50.00
2023-01-21T21:55:37.514Z,49.60
2023-01-21T21:58:05.360Z,47.30
2023-01-21T22:00:31.971Z,54.40
2023-01-21T22:03:01.861Z,49.30
2023-01-21T22:05:29.719Z,49.00
2023-01-21T22:07:56.335Z,52.80
2023-01-21T22:10:23.165Z,46.90
2023-01-21T22:12:50.236Z,46.20
2023-01-21T22:15:17.125Z,45.50
2023-01-21T22:17:44.219Z,49.10
2023-01-21T22:20:11.853Z,48.70
2023-01-21T22:22:39.366Z,46.60
2023-01-21T22:25:06.997Z,41.70
2023-01-21T22:27:33.739Z,51.80
2023-01-21T22:30:01.576Z,43.30
2023-01-21T22:32:28.528Z,43.70
2023-01-21T22:34:55.390Z,37.20
2023-01-21T22:37:22.856Z,40.80
2023-01-21T22:39:49.725Z,42.70
2023-01-21T22:42:16.348Z,40.90
2023-01-21T22:44:42.916Z,38.60
2023-01-21T22:47:09.872Z,44.60
2023-01-21T22:49:36.960Z,42.50
2023-01-21T22:52:03.759Z,40.50
2023-01-21T22:54:30.744Z,41.10
2023-01-21T22:56:57.593Z,41.70
2023-01-21T22:59:24.157Z,40.30
2023-01-21T23:01:50.871Z,41.80
2023-01-21T23:04:18.126Z,41.60
2023-01-21T23:06:47.044Z,42.20
2023-01-21T23:11:44.177Z,51.70
2023-01-21T23:14:10.809Z,48.30
2023-01-21T23:16:37.667Z,43.80
2023-01-21T23:19:04.465Z,46.90
2023-01-21T23:21:31.545Z,41.50
2023-01-21T23:23:58.452Z,54.90
2023-01-21T23:26:25.155Z,47.40
2023-01-21T23:28:55.486Z,38.60
2023-01-21T23:31:22.539Z,41.70
2023-01-21T23:33:50.465Z,38.00
2023-01-21T23:36:17.417Z,40.80
2023-01-21T23:38:44.912Z,38.10
2023-01-21T23:41:13.044Z,35.60
2023-01-21T23:43:39.598Z,36.90
2023-01-21T23:46:08.271Z,38.10
2023-01-21T23:48:35.522Z,33.90
2023-01-21T23:51:03.431Z,32.40
2023-01-21T23:53:30.850Z,42.40
2023-01-21T23:56:13.875Z,33.70
2023-01-21T23:58:40.620Z,35.60
